createdAt,value
2022-11-20T00:01:17.383Z,5.50
2022-11-20T00:03:44.539Z,5.60
2022-11-20T00:06:13.769Z,5.50
2022-11-20T00:08:40.779Z,5.50
2022-11-20T00:11:16.182Z,5.50
2022-11-20T00:13:44.613Z,5.50
2022-11-20T00:16:14.265Z,5.50
2022-11-20T00:18:43.243Z,5.50
2022-11-20T00:21:15.065Z,5.50
2022-11-20T00:23:42.517Z,5.50
2022-11-20T00:26:11.575Z,5.50
2022-11-20T00:28:38.449Z,5.50
2022-11-20T00:31:14.110Z,5.50
2022-11-20T00:33:41.467Z,5.50
2022-11-20T00:36:09.994Z,5.50
2022-11-20T00:38:36.983Z,5.50
2022-11-20T00:41:05.661Z,5.50
2022-11-20T00:43:32.611Z,5.60
2022-11-20T00:46:03.106Z,5.60
2022-11-20T00:48:30.108Z,5.70
2022-11-20T00:50:57.125Z,5.70
2022-11-20T00:53:24.117Z,5.70
2022-11-20T00:55:58.285Z,5.70
2022-11-20T00:58:25.456Z,5.70
2022-11-20T01:00:52.520Z,5.70
2022-11-20T01:03:25.547Z,5.70
2022-11-20T01:05:53.624Z,5.70
2022-11-20T01:08:20.437Z,5.70
2022-11-20T01:10:47.329Z,5.80
2022-11-20T01:13:32.709Z,5.80
2022-11-20T01:16:07.316Z,5.80
2022-11-20T01:18:34.523Z,5.80
2022-11-20T01:21:05.896Z,5.80
2022-11-20T01:23:34.502Z,5.80
2022-11-20T01:26:03.564Z,5.80
2022-11-20T01:28:30.557Z,5.80
2022-11-20T01:30:57.786Z,5.80
2022-11-20T01:33:24.808Z,5.90
2022-11-20T01:35:51.854Z,5.90
2022-11-20T01:38:18.921Z,5.90
2022-11-20T01:40:45.768Z,6.00
2022-11-20T01:43:21.447Z,6.00
2022-11-20T01:45:57.237Z,6.10
2022-11-20T01:48:24.729Z,6.10
2022-11-20T01:50:52.522Z,6.10
2022-11-20T01:53:19.985Z,6.10
2022-11-20T01:55:49.996Z,6.20
2022-11-20T01:58:17.196Z,6.20
2022-11-20T02:00:44.090Z,6.20
2022-11-20T02:03:13.480Z,6.20
2022-11-20T02:05:52.945Z,6.20
2022-11-20T02:08:19.818Z,6.30
2022-11-20T02:10:46.674Z,6.20
2022-11-20T02:13:32.247Z,6.30
2022-11-20T02:15:59.202Z,6.30
2022-11-20T02:18:26.072Z,6.30
2022-11-20T02:20:56.144Z,6.30
2022-11-20T02:23:38.116Z,6.40
2022-11-20T02:26:05.877Z,6.40
2022-11-20T02:28:32.973Z,6.30
2022-11-20T02:30:59.807Z,6.30
2022-11-20T02:33:26.718Z,6.40
2022-11-20T02:35:53.640Z,6.40
2022-11-20T02:38:20.580Z,6.50
2022-11-20T02:40:51.379Z,6.50
2022-11-20T02:43:21.101Z,6.50
2022-11-20T02:45:47.997Z,6.60
2022-11-20T02:48:14.991Z,6.60
2022-11-20T02:50:41.955Z,6.60
2022-11-20T02:53:08.825Z,6.60
2022-11-20T02:55:35.725Z,6.70
2022-11-20T02:58:02.624Z,6.70
2022-11-20T03:00:29.643Z,6.70
2022-11-20T03:02:56.542Z,6.70
2022-11-20T03:05:23.913Z,6.70
2022-11-20T03:07:50.748Z,6.70
2022-11-20T03:10:17.814Z,6.70
2022-11-20T03:12:44.652Z,6.80
2022-11-20T03:15:11.663Z,6.80
2022-11-20T03:17:38.503Z,6.80
2022-11-20T03:20:06.074Z,6.80
2022-11-20T03:22:32.917Z,6.80
2022-11-20T03:24:59.803Z,6.90
2022-11-20T03:27:26.661Z,6.80
2022-11-20T03:29:53.619Z,6.80
2022-11-20T03:32:20.487Z,6.80
2022-11-20T03:34:47.364Z,6.90
2022-11-20T03:37:14.253Z,6.90
2022-11-20T03:39:41.233Z,6.90
2022-11-20T03:42:28.052Z,6.90
2022-11-20T03:44:54.954Z,7.00
2022-11-20T03:47:21.885Z,7.00
2022-11-20T03:49:48.813Z,7.00
2022-11-20T03:52:15.685Z,7.10
2022-11-20T03:54:42.561Z,7.10
2022-11-20T03:57:09.414Z,7.10
2022-11-20T03:59:36.289Z,7.20
2022-11-20T04:02:03.210Z,7.20
2022-11-20T04:04:30.146Z,7.20
2022-11-20T04:06:57.059Z,7.30
2022-11-20T04:09:24.165Z,7.30
2022-11-20T04:11:51.138Z,7.30
2022-11-20T04:14:18.075Z,7.30
2022-11-20T04:16:45.015Z,7.30
2022-11-20T04:19:13.212Z,7.30
2022-11-20T04:21:40.022Z,7.30
2022-11-20T04:24:07.381Z,7.40
2022-11-20T04:26:34.311Z,7.40
2022-11-20T04:29:04.358Z,7.40
2022-11-20T04:31:33.884Z,7.40
2022-11-20T04:34:05.097Z,7.40
2022-11-20T04:36:32.027Z,7.40
2022-11-20T04:39:04.002Z,7.40
2022-11-20T04:41:35.380Z,7.50
2022-11-20T04:44:05.925Z,7.40
2022-11-20T04:46:37.256Z,7.50
2022-11-20T04:49:04.348Z,7.50
2022-11-20T04:51:31.215Z,7.50
2022-11-20T04:53:59.530Z,7.50
2022-11-20T04:56:26.414Z,7.60
2022-11-20T04:58:53.300Z,7.60
2022-11-20T05:01:24.571Z,7.60
2022-11-20T05:03:51.757Z,7.60
2022-11-20T05:06:20.342Z,7.60
2022-11-20T05:08:47.351Z,7.70
2022-11-20T05:11:15.850Z,7.70
2022-11-20T05:13:42.923Z,7.70
2022-11-20T05:16:12.239Z,7.70
2022-11-20T05:18:39.425Z,7.70
2022-11-20T05:21:06.565Z,7.70
2022-11-20T05:23:33.752Z,7.70
2022-11-20T05:26:00.913Z,7.80
2022-11-20T05:28:28.478Z,7.70
2022-11-20T05:30:55.392Z,7.80
2022-11-20T05:33:22.407Z,7.80
2022-11-20T05:35:49.634Z,7.80
2022-11-20T05:38:16.724Z,7.80
2022-11-20T05:40:43.801Z,7.80
2022-11-20T05:43:10.735Z,7.80
2022-11-20T05:45:37.646Z,7.80
2022-11-20T05:48:04.662Z,7.80
2022-11-20T05:50:31.529Z,7.80
2022-11-20T05:53:01.684Z,7.90
2022-11-20T05:55:28.624Z,7.90
2022-11-20T05:57:56.039Z,7.90
2022-11-20T06:00:23.234Z,7.90
2022-11-20T06:02:50.140Z,7.90
2022-11-20T06:05:17.018Z,7.90
2022-11-20T06:07:43.907Z,7.90
2022-11-20T06:10:10.868Z,7.90
2022-11-20T06:12:37.638Z,7.90
2022-11-20T06:15:05.196Z,7.90
2022-11-20T06:17:32.004Z,8.00
2022-11-20T06:19:58.991Z,8.00
2022-11-20T06:22:25.829Z,8.00
2022-11-20T06:24:52.614Z,8.00
2022-11-20T06:27:19.342Z,8.00
2022-11-20T06:29:46.217Z,8.10
2022-11-20T06:32:13.021Z,8.00
2022-11-20T06:34:39.829Z,8.10
2022-11-20T06:37:06.588Z,8.10
2022-11-20T06:39:33.412Z,8.10
2022-11-20T06:42:00.224Z,8.10
2022-11-20T06:44:27.108Z,8.10
2022-11-20T06:46:53.907Z,8.20
2022-11-20T06:49:21.176Z,8.20
2022-11-20T06:51:48.233Z,8.20
2022-11-20T06:54:15.189Z,8.20
2022-11-20T06:56:41.971Z,8.20
2022-11-20T06:59:08.867Z,8.30
2022-11-20T07:01:36.147Z,8.30
2022-11-20T07:04:04.202Z,8.30
2022-11-20T07:06:31.127Z,8.30
2022-11-20T07:08:58.141Z,8.40
2022-11-20T07:11:24.970Z,8.40
2022-11-20T07:13:51.891Z,8.40
2022-11-20T07:16:18.833Z,8.40
2022-11-20T07:18:50.230Z,8.40
2022-11-20T07:21:17.768Z,8.40
2022-11-20T07:23:44.580Z,8.50
2022-11-20T07:26:11.440Z,8.50
2022-11-20T07:28:38.278Z,8.50
2022-11-20T07:31:06.028Z,8.50
2022-11-20T07:33:32.926Z,8.60
2022-11-20T07:36:00.226Z,8.60
2022-11-20T07:38:27.106Z,8.60
2022-11-20T07:40:58.598Z,8.70
2022-11-20T07:43:26.363Z,8.80
2022-11-20T07:45:53.296Z,8.80
2022-11-20T07:48:20.165Z,8.80
2022-11-20T07:50:46.944Z,8.80
2022-11-20T07:53:14.914Z,8.80
2022-11-20T07:55:41.701Z,8.80
2022-11-20T07:58:08.543Z,8.70
2022-11-20T08:00:35.352Z,8.70
2022-11-20T08:03:04.280Z,8.70
2022-11-20T08:05:31.136Z,8.80
2022-11-20T08:07:58.018Z,8.80
2022-11-20T08:10:24.849Z,8.80
2022-11-20T08:13:31.061Z,8.80
2022-11-20T08:15:57.939Z,8.80
2022-11-20T08:18:32.825Z,8.90
2022-11-20T08:21:03.229Z,8.90
2022-11-20T08:23:30.063Z,8.90
2022-11-20T08:25:56.840Z,8.90
2022-11-20T08:28:23.617Z,8.90
2022-11-20T08:30:51.196Z,9.00
2022-11-20T08:33:19.115Z,9.00
2022-11-20T08:35:46.143Z,9.00
2022-11-20T08:38:12.939Z,9.00
2022-11-20T08:40:39.746Z,9.00
2022-11-20T08:43:06.556Z,9.00
2022-11-20T08:45:34.995Z,9.00
2022-11-20T08:48:05.584Z,9.00
2022-11-20T08:50:33.498Z,9.00
2022-11-20T08:53:04.574Z,9.10
2022-11-20T08:55:31.462Z,9.10
2022-11-20T08:57:58.322Z,9.10
2022-11-20T09:00:25.148Z,9.20
2022-11-20T09:02:52.953Z,9.20
2022-11-20T09:05:19.805Z,9.20
2022-11-20T09:07:46.624Z,9.20
2022-11-20T09:10:29.058Z,9.20
2022-11-20T09:12:59.078Z,9.20
2022-11-20T09:15:26.124Z,9.30
2022-11-20T09:17:56.485Z,9.20
2022-11-20T09:20:23.395Z,9.20
2022-11-20T09:22:50.148Z,9.20
2022-11-20T09:25:16.923Z,9.30
2022-11-20T09:27:45.189Z,9.40
2022-11-20T09:30:12.340Z,9.40
2022-11-20T09:32:42.437Z,9.50
2022-11-20T09:35:09.528Z,9.50
2022-11-20T09:37:36.359Z,9.50
2022-11-20T09:40:03.228Z,9.50
2022-11-20T09:42:45.356Z,9.50
2022-11-20T09:45:23.116Z,9.50
2022-11-20T09:47:56.062Z,9.50
2022-11-20T09:50:25.929Z,9.30
2022-11-20T09:52:56.587Z,9.30
2022-11-20T09:55:23.405Z,9.40
2022-11-20T09:57:50.884Z,9.40
2022-11-20T10:00:17.916Z,9.40
2022-11-20T10:02:57.034Z,9.40
2022-11-20T10:05:23.863Z,9.30
2022-11-20T10:07:57.332Z,9.20
2022-11-20T10:10:44.225Z,9.20
2022-11-20T10:13:50.105Z,9.20
2022-11-20T10:16:20.173Z,9.10
2022-11-20T10:19:04.905Z,9.10
2022-11-20T10:21:37.584Z,9.20
2022-11-20T10:24:25.069Z,9.20
2022-11-20T10:26:59.745Z,9.20
2022-11-20T10:29:30.952Z,9.20
2022-11-20T10:31:58.198Z,9.20
2022-11-20T10:34:27.184Z,9.20
2022-11-20T10:36:56.088Z,9.20
2022-11-20T10:39:28.128Z,9.20
2022-11-20T10:41:54.943Z,9.30
2022-11-20T10:44:41.608Z,9.30
2022-11-20T10:47:12.764Z,9.30
2022-11-20T10:49:39.586Z,9.30
2022-11-20T10:52:15.608Z,9.30
2022-11-20T10:54:45.204Z,9.30
2022-11-20T10:57:19.020Z,9.30
2022-11-20T10:59:52.571Z,9.40
2022-11-20T11:02:20.320Z,9.40
2022-11-20T11:04:50.793Z,9.40
2022-11-20T11:07:25.477Z,9.40
2022-11-20T11:09:55.925Z,9.50
2022-11-20T11:12:23.574Z,9.50
2022-11-20T11:14:51.175Z,9.50
2022-11-20T11:17:21.925Z,9.50
2022-11-20T11:20:00.865Z,9.50
2022-11-20T11:22:27.745Z,9.50
2022-11-20T11:24:54.653Z,9.60
2022-11-20T11:27:21.512Z,9.70
2022-11-20T11:29:48.375Z,9.80
2022-11-20T11:32:18.817Z,9.90
2022-11-20T11:34:45.673Z,9.90
2022-11-20T11:37:14.454Z,9.90
2022-11-20T11:39:42.136Z,9.90
2022-11-20T11:42:08.923Z,9.90
2022-11-20T11:44:54.552Z,9.90
2022-11-20T11:47:28.201Z,9.90
2022-11-20T11:50:21.595Z,9.90
2022-11-20T11:53:04.142Z,9.90
2022-11-20T11:55:49.768Z,9.90
2022-11-20T11:58:28.721Z,9.90
2022-11-20T12:01:05.409Z,9.90
2022-11-20T12:03:35.716Z,9.90
2022-11-20T12:06:03.158Z,9.90
2022-11-20T12:08:59.330Z,9.90
2022-11-20T12:11:38.425Z,9.90
2022-11-20T12:14:27.888Z,10.00
2022-11-20T12:16:56.678Z,10.00
2022-11-20T12:19:23.699Z,10.00
2022-11-20T12:21:51.009Z,10.00
2022-11-20T12:24:33.050Z,10.10
2022-11-20T12:27:14.882Z,10.10
2022-11-20T12:29:41.649Z,10.10
2022-11-20T12:32:27.371Z,10.10
2022-11-20T12:34:57.772Z,10.20
2022-11-20T12:37:24.533Z,10.20
2022-11-20T12:39:54.238Z,10.20
2022-11-20T12:42:45.583Z,10.30
2022-11-20T12:45:24.569Z,10.30
2022-11-20T12:47:57.206Z,10.30
2022-11-20T12:50:30.459Z,10.30
2022-11-20T12:52:58.170Z,10.30
2022-11-20T12:55:27.123Z,10.30
2022-11-20T12:58:26.547Z,10.40
2022-11-20T13:00:57.933Z,10.40
2022-11-20T13:03:35.500Z,10.40
2022-11-20T13:06:04.873Z,10.40
2022-11-20T13:08:35.189Z,10.40
2022-11-20T13:11:04.436Z,10.40
2022-11-20T13:13:31.190Z,10.40
2022-11-20T13:16:03.324Z,10.40
2022-11-20T13:18:30.378Z,10.30
2022-11-20T13:20:57.164Z,10.40
2022-11-20T13:23:24.810Z,10.40
2022-11-20T13:25:53.718Z,10.40
2022-11-20T13:28:20.517Z,10.40
2022-11-20T13:30:53.595Z,10.40
2022-11-20T13:33:24.103Z,10.40
2022-11-20T13:36:00.014Z,10.40
2022-11-20T13:38:31.258Z,10.40
2022-11-20T13:41:21.164Z,10.40
2022-11-20T13:43:48.124Z,10.40
2022-11-20T13:46:16.140Z,10.30
2022-11-20T13:48:43.924Z,10.20
2022-11-20T13:51:15.547Z,10.30
2022-11-20T13:53:54.484Z,10.20
2022-11-20T13:56:21.342Z,10.30
2022-11-20T13:58:53.971Z,10.40
2022-11-20T14:01:20.828Z,10.40
2022-11-20T14:06:52.921Z,10.40
2022-11-20T14:09:26.870Z,10.30
2022-11-20T14:11:53.733Z,10.20
2022-11-20T14:14:22.184Z,10.20
2022-11-20T14:16:49.358Z,10.10
2022-11-20T14:19:22.126Z,10.10
2022-11-20T14:21:49.359Z,10.10
2022-11-20T14:24:19.890Z,10.10
2022-11-20T14:26:46.875Z,10.10
2022-11-20T14:29:17.314Z,10.10
2022-11-20T14:31:44.269Z,10.10
2022-11-20T14:34:15.831Z,10.20
2022-11-20T14:36:42.742Z,10.20
2022-11-20T14:39:10.793Z,10.20
2022-11-20T14:41:37.589Z,10.20
2022-11-20T14:44:04.495Z,10.30
2022-11-20T14:46:31.309Z,10.30
2022-11-20T14:48:58.323Z,10.40
2022-11-20T14:51:30.772Z,10.40
2022-11-20T14:53:57.573Z,10.40
2022-11-20T14:56:25.191Z,10.40
2022-11-20T14:58:58.424Z,10.40
2022-11-20T15:01:32.098Z,10.40
2022-11-20T15:04:08.658Z,10.50
2022-11-20T15:06:35.556Z,10.40
2022-11-20T15:09:03.700Z,10.40
2022-11-20T15:11:31.517Z,10.40
2022-11-20T15:13:58.427Z,10.40
2022-11-20T15:16:25.846Z,10.40
2022-11-20T15:18:52.723Z,10.40
2022-11-20T15:21:20.027Z,10.40
2022-11-20T15:23:46.878Z,10.40
2022-11-20T15:26:19.451Z,10.50
2022-11-20T15:28:51.310Z,10.50
2022-11-20T15:31:22.164Z,10.40
2022-11-20T15:33:49.129Z,10.40
2022-11-20T15:36:16.012Z,10.30
2022-11-20T15:38:42.876Z,10.20
2022-11-20T15:41:09.923Z,10.20
2022-11-20T15:43:36.877Z,10.10
2022-11-20T15:46:04.757Z,10.00
2022-11-20T15:48:42.095Z,10.00
2022-11-20T15:51:13.226Z,10.00
2022-11-20T15:53:41.183Z,9.90
2022-11-20T15:56:12.222Z,9.90
2022-11-20T15:58:39.226Z,9.90
2022-11-20T16:01:07.601Z,9.80
2022-11-20T16:03:34.453Z,9.80
2022-11-20T16:06:01.382Z,9.70
2022-11-20T16:08:28.173Z,9.60
2022-11-20T16:10:54.987Z,9.60
2022-11-20T16:13:40.141Z,9.50
2022-11-20T16:16:10.617Z,9.50
2022-11-20T16:18:37.509Z,9.50
2022-11-20T16:21:04.351Z,9.40
2022-11-20T16:23:31.184Z,9.40
2022-11-20T16:25:58.198Z,9.40
2022-11-20T16:28:25.018Z,9.40
2022-11-20T16:30:51.915Z,9.50
2022-11-20T16:33:18.678Z,9.50
2022-11-20T16:35:45.513Z,9.50
2022-11-20T16:38:12.328Z,9.50
2022-11-20T16:40:39.148Z,9.50
2022-11-20T16:43:07.900Z,9.50
2022-11-20T16:45:34.730Z,9.50
2022-11-20T16:48:01.622Z,9.50
2022-11-20T16:50:28.484Z,9.50
2022-11-20T16:52:55.765Z,9.50
2022-11-20T16:55:22.561Z,9.60
2022-11-20T16:57:49.345Z,9.60
2022-11-20T17:00:16.297Z,9.60
2022-11-20T17:02:43.104Z,9.60
2022-11-20T17:05:10.043Z,9.60
2022-11-20T17:07:37.997Z,9.60
2022-11-20T17:10:05.093Z,9.70
2022-11-20T17:12:31.941Z,9.70
2022-11-20T17:14:58.796Z,9.60
2022-11-20T17:17:25.592Z,9.70
2022-11-20T17:19:52.471Z,9.70
2022-11-20T17:22:19.330Z,9.70
2022-11-20T17:24:46.191Z,9.70
2022-11-20T17:27:13.013Z,9.70
2022-11-20T17:29:42.174Z,9.70
2022-11-20T17:32:09.161Z,9.70
2022-11-20T17:34:36.051Z,9.70
2022-11-20T17:37:03.427Z,9.70
2022-11-20T17:39:30.261Z,9.70
2022-11-20T17:42:15.595Z,9.70
2022-11-20T17:44:42.769Z,9.70
2022-11-20T17:47:09.532Z,9.70
2022-11-20T17:49:36.378Z,9.70
2022-11-20T17:52:03.195Z,9.70
2022-11-20T17:54:30.105Z,9.60
2022-11-20T17:57:15.725Z,9.60
2022-11-20T17:59:42.555Z,9.50
2022-11-20T18:02:11.129Z,9.50
2022-11-20T18:04:38.118Z,9.40
2022-11-20T18:07:05.305Z,9.30
2022-11-20T18:09:32.239Z,9.20
2022-11-20T18:11:59.064Z,9.10
2022-11-20T18:14:32.461Z,9.10
2022-11-20T18:17:04.021Z,9.00
2022-11-20T18:19:33.111Z,8.90
2022-11-20T18:22:01.819Z,8.80
2022-11-20T18:24:29.001Z,8.70
2022-11-20T18:26:55.919Z,8.70
2022-11-20T18:29:23.407Z,8.60
2022-11-20T18:31:50.341Z,8.60
2022-11-20T18:34:17.143Z,8.50
2022-11-20T18:36:45.197Z,8.40
2022-11-20T18:39:12.707Z,8.40
2022-11-20T18:41:59.520Z,8.30
2022-11-20T18:44:46.153Z,8.30
2022-11-20T18:47:15.113Z,8.20
2022-11-20T18:49:42.629Z,8.20
2022-11-20T18:52:09.418Z,8.20
2022-11-20T18:54:37.021Z,8.10
2022-11-20T18:57:04.417Z,8.00
2022-11-20T18:59:31.822Z,8.00
2022-11-20T19:01:58.959Z,7.90
2022-11-20T19:04:26.153Z,7.90
2022-11-20T19:06:56.272Z,7.90
2022-11-20T19:09:23.752Z,7.90
2022-11-20T19:11:51.382Z,7.80
2022-11-20T19:14:18.672Z,7.80
2022-11-20T19:16:45.953Z,7.70
2022-11-20T19:19:12.840Z,7.70
2022-11-20T19:21:39.706Z,7.70
2022-11-20T19:24:06.622Z,7.60
2022-11-20T19:26:34.893Z,7.60
2022-11-20T19:29:01.768Z,7.60
2022-11-20T19:31:28.672Z,7.50
2022-11-20T19:33:56.284Z,7.50
2022-11-20T19:36:25.839Z,7.40
2022-11-20T19:38:53.010Z,7.40
2022-11-20T19:41:20.785Z,7.40
2022-11-20T19:43:50.403Z,7.30
2022-11-20T19:46:18.457Z,7.30
2022-11-20T19:48:45.258Z,7.30
2022-11-20T19:51:12.878Z,7.20
2022-11-20T19:53:39.740Z,7.20
2022-11-20T19:56:07.064Z,7.10
2022-11-20T19:58:36.183Z,7.10
2022-11-20T20:01:07.137Z,7.10
2022-11-20T20:03:34.009Z,7.10
2022-11-20T20:06:01.462Z,7.00
2022-11-20T20:08:28.282Z,7.00
2022-11-20T20:10:59.331Z,7.00
2022-11-20T20:13:26.583Z,7.00
2022-11-20T20:15:53.411Z,7.00
2022-11-20T20:18:20.230Z,7.00
2022-11-20T20:20:47.017Z,7.00
2022-11-20T20:23:13.817Z,7.00
2022-11-20T20:25:40.720Z,6.90
2022-11-20T20:28:07.509Z,6.90
2022-11-20T20:30:35.615Z,6.90
2022-11-20T20:33:02.430Z,6.90
2022-11-20T20:35:29.263Z,6.80
2022-11-20T20:37:56.035Z,6.80
2022-11-20T20:40:23.102Z,6.80
2022-11-20T20:42:49.917Z,6.70
2022-11-20T20:45:16.816Z,6.70
2022-11-20T20:47:43.668Z,6.70
2022-11-20T20:50:10.876Z,6.60
2022-11-20T20:52:37.844Z,6.60
2022-11-20T20:55:04.934Z,6.60
2022-11-20T20:57:31.769Z,6.60
2022-11-20T20:59:58.535Z,6.50
2022-11-20T21:02:25.485Z,6.50
2022-11-20T21:04:52.347Z,6.50
2022-11-20T21:07:19.207Z,6.50
2022-11-20T21:09:45.993Z,6.50
2022-11-20T21:12:12.795Z,6.50
2022-11-20T21:14:39.607Z,6.50
2022-11-20T21:17:08.581Z,6.50
2022-11-20T21:19:39.046Z,6.40
2022-11-20T21:22:05.875Z,6.40
2022-11-20T21:24:33.444Z,6.40
2022-11-20T21:27:00.684Z,6.30
2022-11-20T21:29:28.137Z,6.30
2022-11-20T21:31:55.110Z,6.30
2022-11-20T21:34:22.288Z,6.30
2022-11-20T21:36:49.414Z,6.20
2022-11-20T21:39:16.283Z,6.20
2022-11-20T21:41:43.106Z,6.20
2022-11-20T21:46:58.286Z,6.20
2022-11-20T21:49:25.450Z,6.20
2022-11-20T21:51:53.789Z,6.10
2022-11-20T21:54:20.731Z,6.10
2022-11-20T21:56:47.754Z,6.10
2022-11-20T21:59:14.558Z,6.00
2022-11-20T22:01:41.841Z,5.90
2022-11-20T22:04:12.359Z,5.90
2022-11-20T22:06:39.150Z,5.90
2022-11-20T22:09:06.047Z,5.80
2022-11-20T22:11:32.845Z,5.80
2022-11-20T22:14:18.047Z,5.80
2022-11-20T22:16:44.806Z,5.80
2022-11-20T22:19:11.786Z,5.80
2022-11-20T22:21:38.829Z,5.70
2022-11-20T22:24:05.733Z,5.70
2022-11-20T22:26:39.654Z,5.60
2022-11-20T22:29:07.231Z,5.60
2022-11-20T22:31:34.035Z,5.60
2022-11-20T22:34:01.433Z,5.60
2022-11-20T22:36:28.772Z,5.60
2022-11-20T22:38:55.566Z,5.60
2022-11-20T22:41:27.238Z,5.60
2022-11-20T22:43:55.044Z,5.60
2022-11-20T22:46:21.890Z,5.60
2022-11-20T22:48:51.734Z,5.70
2022-11-20T22:51:20.096Z,5.70
2022-11-20T22:53:47.036Z,5.60
2022-11-20T22:56:13.909Z,5.60
2022-11-20T22:58:41.207Z,5.70
2022-11-20T23:01:11.025Z,5.70
2022-11-20T23:03:38.099Z,5.70
2022-11-20T23:06:05.121Z,5.70
2022-11-20T23:08:31.931Z,5.70
2022-11-20T23:10:59.524Z,5.60
2022-11-20T23:13:26.682Z,5.60
2022-11-20T23:15:53.572Z,5.60
2022-11-20T23:18:20.313Z,5.60
2022-11-20T23:20:47.128Z,5.60
2022-11-20T23:23:13.943Z,5.60
2022-11-20T23:25:40.745Z,5.60
2022-11-20T23:28:07.519Z,5.60
2022-11-20T23:30:34.297Z,5.60
2022-11-20T23:33:01.081Z,5.60
2022-11-20T23:35:27.875Z,5.70
2022-11-20T23:37:54.656Z,5.70
2022-11-20T23:40:21.494Z,5.70
2022-11-20T23:43:23.440Z,5.70
2022-11-20T23:45:51.185Z,5.70
2022-11-20T23:48:18.112Z,5.70
2022-11-20T23:50:45.149Z,5.70
2022-11-20T23:53:12.245Z,5.80
2022-11-20T23:55:39.038Z,5.80
2022-11-20T23:58:05.828Z,5.80
